ěÝzenÝ letovÚho provozu ╚eskÚ republiky
Letiste: LKCS Aktualizace: 31.01.2023 15:30:33  UTC
 METAR LKCS 31.01. 15:30 ...
METAR LKCS 311530Z AUTO 26016KT 9999 FEW037/// BKN081/// OVC099/// 03/M02 Q1019=